Hammond, Maine
Current Conditions -  °F | °C
As of 8:53 PM on Friday 19 Dec 2014 (Local Time) from KHUL Reporting Station
Clear Clear  
Wind Chill:   Ceiling: Unl
Heat Index: 19°   Visibility: 10mi
Dew Point: 13°   Wind: 9mph
Humidity: 77%   Direction: 360°N
Pressure: 30.06"   Gusts: NA
Location:  46.1163°N, 67.9329°W
Report Text: KHUL 200153Z AUTO 36008KT 10SM CLR M07/M11 A3006 RMK AO2 SLP188 T10721106
Loading
Personal Weather Stations






























Interactive Weather Map New forecast layout! Learn more

10-Day Weather Forecast

Advertisements
Track Severe Weather on mobile